createdAt,value
2018-06-14T00:00:45.417Z,8.47
2018-06-14T00:03:14.360Z,8.63
2018-06-14T00:05:43.289Z,8.03
2018-06-14T00:08:12.126Z,8.57
2018-06-14T00:10:40.926Z,8.70
2018-06-14T00:13:09.720Z,7.93
2018-06-14T00:15:38.643Z,7.70
2018-06-14T00:18:07.457Z,7.57
2018-06-14T00:20:36.263Z,7.10
2018-06-14T00:23:05.064Z,7.13
2018-06-14T00:25:34.025Z,6.43
2018-06-14T00:28:02.825Z,6.70
2018-06-14T00:30:31.691Z,6.53
2018-06-14T00:33:00.496Z,6.37
2018-06-14T00:35:29.278Z,5.77
2018-06-14T00:37:58.292Z,5.50
2018-06-14T00:40:27.083Z,5.83
2018-06-14T00:42:55.907Z,5.30
2018-06-14T00:45:24.726Z,4.93
2018-06-14T00:47:53.491Z,5.40
2018-06-14T00:50:22.289Z,5.70
2018-06-14T00:52:51.078Z,5.13
2018-06-14T00:55:19.848Z,5.33
2018-06-14T00:57:48.699Z,5.33
2018-06-14T01:00:17.487Z,5.30
2018-06-14T01:02:46.294Z,5.70
2018-06-14T01:05:15.098Z,6.27
2018-06-14T01:07:44.027Z,6.27
2018-06-14T01:10:12.911Z,6.33
2018-06-14T01:12:41.716Z,6.40
2018-06-14T01:15:10.528Z,6.30
2018-06-14T01:17:39.331Z,7.53
2018-06-14T01:20:08.185Z,6.00
2018-06-14T01:22:37.108Z,5.73
2018-06-14T01:25:06.387Z,5.57
2018-06-14T01:27:35.536Z,5.67
2018-06-14T01:30:04.448Z,5.73
2018-06-14T01:32:33.224Z,5.47
2018-06-14T01:35:02.002Z,5.83
2018-06-14T01:37:41.734Z,5.53
2018-06-14T01:40:10.716Z,5.73
2018-06-14T01:42:39.528Z,5.73
2018-06-14T01:45:08.358Z,6.13
2018-06-14T01:47:37.174Z,5.53
2018-06-14T01:50:06.012Z,4.70
2018-06-14T01:52:34.796Z,4.47
2018-06-14T01:55:03.615Z,4.30
2018-06-14T01:57:32.429Z,3.70
2018-06-14T02:00:01.277Z,3.70
2018-06-14T02:02:30.151Z,3.70
2018-06-14T02:04:59.031Z,3.93
2018-06-14T02:07:27.814Z,4.37
2018-06-14T02:09:56.575Z,4.50
2018-06-14T02:12:25.356Z,5.07
2018-06-14T02:14:54.141Z,4.67
2018-06-14T02:17:22.932Z,4.50
2018-06-14T02:19:51.697Z,5.13
2018-06-14T02:22:20.646Z,5.03
2018-06-14T02:24:49.414Z,5.10
2018-06-14T02:27:18.224Z,5.00
2018-06-14T02:29:47.049Z,4.13
2018-06-14T02:32:15.842Z,4.03
2018-06-14T02:34:44.623Z,4.30
2018-06-14T02:37:13.421Z,4.07
2018-06-14T02:39:42.232Z,4.03
2018-06-14T02:42:11.015Z,4.73
2018-06-14T02:44:40.542Z,4.37
2018-06-14T02:47:09.318Z,4.23
2018-06-14T02:49:38.200Z,4.57
2018-06-14T02:52:07.010Z,4.90
2018-06-14T02:54:35.799Z,5.23
2018-06-14T02:57:04.602Z,5.00
2018-06-14T02:59:33.396Z,5.50
2018-06-14T03:02:02.179Z,5.70
2018-06-14T03:04:31.060Z,5.50
2018-06-14T03:06:59.817Z,4.87
2018-06-14T03:09:28.591Z,4.67
2018-06-14T03:11:57.388Z,4.83
2018-06-14T03:14:26.260Z,5.20
2018-06-14T03:16:55.205Z,5.30
2018-06-14T03:19:23.983Z,4.90
2018-06-14T03:21:52.846Z,5.20
2018-06-14T03:24:21.634Z,5.67
2018-06-14T03:26:50.404Z,5.10
2018-06-14T03:29:19.190Z,5.33
2018-06-14T03:31:48.078Z,5.83
2018-06-14T03:34:16.883Z,5.40
2018-06-14T03:36:45.757Z,5.70
2018-06-14T03:39:14.561Z,5.80
2018-06-14T03:41:43.343Z,5.97
2018-06-14T03:44:12.108Z,5.20
2018-06-14T03:46:40.965Z,5.40
2018-06-14T03:49:09.751Z,5.83
2018-06-14T03:51:38.529Z,5.97
2018-06-14T03:54:07.305Z,4.97
2018-06-14T03:56:36.117Z,5.53
2018-06-14T03:59:05.227Z,5.43
2018-06-14T04:01:34.012Z,4.77
2018-06-14T04:04:02.859Z,5.00
2018-06-14T04:06:31.651Z,5.10
2018-06-14T04:09:00.493Z,5.30
2018-06-14T04:11:29.240Z,5.30
2018-06-14T04:13:58.016Z,5.37
2018-06-14T04:16:26.800Z,4.90
2018-06-14T04:18:55.732Z,4.43
2018-06-14T04:21:24.505Z,5.03
2018-06-14T04:23:53.262Z,5.50
2018-06-14T04:26:22.037Z,6.20
2018-06-14T04:28:50.828Z,6.10
2018-06-14T04:31:19.615Z,6.10
2018-06-14T04:33:48.392Z,15.00
2018-06-14T04:36:17.353Z,8.60
2018-06-14T04:38:46.178Z,9.53
2018-06-14T04:41:15.165Z,9.47
2018-06-14T04:43:43.976Z,7.87
2018-06-14T04:46:12.933Z,8.57
2018-06-14T04:48:41.841Z,8.63
2018-06-14T04:51:10.803Z,8.43
2018-06-14T04:53:40.520Z,6.90
2018-06-14T04:56:11.572Z,7.73
2018-06-14T04:58:40.399Z,6.67
2018-06-14T05:01:09.523Z,7.20
2018-06-14T05:03:38.536Z,7.87
2018-06-14T05:06:07.340Z,8.00
2018-06-14T05:08:36.127Z,7.40
2018-06-14T05:11:04.998Z,6.93
2018-06-14T05:13:33.752Z,8.27
2018-06-14T05:16:02.947Z,7.10
2018-06-14T05:18:31.712Z,6.73
2018-06-14T05:21:00.498Z,6.23
2018-06-14T05:23:29.400Z,6.13
2018-06-14T05:25:58.277Z,5.93
2018-06-14T05:28:27.014Z,6.50
2018-06-14T05:30:55.778Z,5.67
2018-06-14T05:33:24.568Z,5.83
2018-06-14T05:35:53.353Z,5.30
2018-06-14T05:38:22.166Z,5.87
2018-06-14T05:40:50.936Z,6.77
2018-06-14T05:43:19.746Z,7.03
2018-06-14T05:45:48.555Z,6.47
2018-06-14T05:48:17.369Z,6.33
2018-06-14T05:50:46.111Z,6.77
2018-06-14T05:53:14.900Z,6.67
2018-06-14T05:55:44.092Z,6.13
2018-06-14T05:58:12.851Z,6.67
2018-06-14T06:00:42.356Z,6.50
2018-06-14T06:03:11.308Z,7.00
2018-06-14T06:05:40.208Z,6.97
2018-06-14T06:08:08.971Z,7.03
2018-06-14T06:10:37.854Z,6.50
2018-06-14T06:13:06.627Z,7.07
2018-06-14T06:15:35.413Z,7.60
2018-06-14T06:18:04.205Z,7.47
2018-06-14T06:20:32.962Z,6.93
2018-06-14T06:23:01.725Z,6.73
2018-06-14T06:25:30.469Z,6.33
2018-06-14T06:27:59.275Z,6.50
2018-06-14T06:30:28.048Z,7.13
2018-06-14T06:32:56.825Z,7.10
2018-06-14T06:35:25.604Z,7.33
2018-06-14T06:37:54.741Z,7.07
2018-06-14T06:40:23.557Z,6.83
2018-06-14T06:42:52.339Z,8.70
2018-06-14T06:45:21.131Z,6.63
2018-06-14T06:47:49.935Z,6.63
2018-06-14T06:50:18.729Z,6.77
2018-06-14T06:52:47.505Z,7.73
2018-06-14T06:55:16.345Z,6.50
2018-06-14T06:57:45.132Z,7.57
2018-06-14T07:00:14.027Z,8.63
2018-06-14T07:02:42.796Z,7.10
2018-06-14T07:05:11.638Z,7.10
2018-06-14T07:07:40.416Z,7.23
2018-06-14T07:10:09.216Z,7.30
2018-06-14T07:12:37.970Z,7.73
2018-06-14T07:15:06.765Z,8.03
2018-06-14T07:17:35.556Z,7.87
2018-06-14T07:20:04.383Z,8.63
2018-06-14T07:22:33.234Z,7.53
2018-06-14T07:25:02.027Z,6.83
2018-06-14T07:27:30.879Z,7.30
2018-06-14T07:29:59.636Z,8.57
2018-06-14T07:32:28.408Z,7.40
2018-06-14T07:34:57.186Z,7.97
2018-06-14T07:37:25.947Z,8.40
2018-06-14T07:39:54.763Z,8.40
2018-06-14T07:42:23.625Z,8.03
2018-06-14T07:44:52.421Z,8.90
2018-06-14T07:47:21.202Z,9.17
2018-06-14T07:49:49.973Z,9.83
2018-06-14T07:52:18.724Z,9.43
2018-06-14T07:54:47.531Z,9.63
2018-06-14T07:57:16.321Z,11.20
2018-06-14T07:59:45.119Z,9.47
2018-06-14T08:02:13.991Z,9.27
2018-06-14T08:04:42.842Z,11.00
2018-06-14T08:07:11.617Z,16.27
2018-06-14T08:09:40.394Z,19.63
2018-06-14T08:12:09.165Z,16.80
2018-06-14T08:14:37.957Z,9.00
2018-06-14T08:17:06.739Z,8.00
2018-06-14T08:19:35.515Z,8.20
2018-06-14T08:22:04.322Z,7.83
2018-06-14T08:24:33.324Z,8.33
2018-06-14T08:27:02.097Z,9.13
2018-06-14T08:29:30.843Z,8.80
2018-06-14T08:31:59.660Z,9.53
2018-06-14T08:34:28.438Z,9.13
2018-06-14T08:36:57.276Z,9.63
2018-06-14T08:39:26.113Z,9.20
2018-06-14T08:41:54.919Z,8.63
2018-06-14T08:44:23.683Z,8.70
2018-06-14T08:46:52.530Z,8.93
2018-06-14T08:49:21.305Z,8.77
2018-06-14T08:51:50.052Z,9.23
2018-06-14T08:54:18.819Z,9.30
2018-06-14T08:56:47.615Z,10.57
2018-06-14T08:59:16.501Z,8.93
2018-06-14T09:01:45.263Z,9.07
2018-06-14T09:04:14.031Z,9.20
2018-06-14T09:06:43.011Z,9.30
2018-06-14T09:09:12.232Z,10.07
2018-06-14T09:11:41.582Z,9.37
2018-06-14T09:14:10.821Z,8.93
2018-06-14T09:16:40.133Z,9.80
2018-06-14T09:19:08.899Z,9.10
2018-06-14T09:21:37.769Z,9.80
2018-06-14T09:24:06.583Z,9.33
2018-06-14T09:26:35.387Z,9.17
2018-06-14T09:29:04.169Z,8.83
2018-06-14T09:31:33.009Z,9.33
2018-06-14T09:34:01.770Z,9.17
2018-06-14T09:36:30.925Z,9.77
2018-06-14T09:38:59.777Z,9.07
2018-06-14T09:41:28.604Z,8.90
2018-06-14T09:43:57.477Z,8.53
2018-06-14T09:46:26.246Z,9.00
2018-06-14T09:49:00.079Z,9.00
2018-06-14T09:51:28.830Z,9.37
2018-06-14T09:53:57.683Z,9.20
2018-06-14T09:56:26.460Z,9.17
2018-06-14T09:58:55.227Z,9.70
2018-06-14T10:01:24.143Z,8.63
2018-06-14T10:03:52.928Z,9.00
2018-06-14T10:06:22.094Z,9.77
2018-06-14T10:08:50.903Z,9.90
2018-06-14T10:11:19.707Z,9.10
2018-06-14T10:13:48.526Z,9.50
2018-06-14T10:16:17.448Z,9.00
2018-06-14T10:18:46.248Z,8.00
2018-06-14T10:21:15.009Z,8.80
2018-06-14T10:23:43.772Z,6.83
2018-06-14T10:26:12.583Z,8.33
2018-06-14T10:28:41.349Z,7.63
2018-06-14T10:31:10.131Z,7.60
2018-06-14T10:33:39.021Z,7.10
2018-06-14T10:36:07.831Z,6.90
2018-06-14T10:38:36.639Z,6.10
2018-06-14T10:41:05.465Z,6.60
2018-06-14T10:43:34.252Z,6.67
2018-06-14T10:46:03.010Z,6.07
2018-06-14T10:48:31.805Z,5.97
2018-06-14T10:51:00.602Z,5.83
2018-06-14T10:53:29.364Z,6.10
2018-06-14T10:55:58.120Z,6.00
2018-06-14T10:58:26.929Z,6.00
2018-06-14T11:00:55.788Z,7.30
2018-06-14T11:03:24.559Z,6.93
2018-06-14T11:05:53.346Z,6.30
2018-06-14T11:08:22.149Z,6.43
2018-06-14T11:10:50.937Z,5.80
2018-06-14T11:13:19.792Z,6.30
2018-06-14T11:15:48.623Z,6.40
2018-06-14T11:18:17.436Z,7.80
2018-06-14T11:20:46.227Z,6.03
2018-06-14T11:23:15.097Z,6.47
2018-06-14T11:25:43.901Z,7.03
2018-06-14T11:28:12.761Z,6.33
2018-06-14T11:30:41.502Z,6.40
2018-06-14T11:33:10.287Z,6.47
2018-06-14T11:35:39.084Z,6.53
2018-06-14T11:38:07.957Z,7.67
2018-06-14T11:40:36.735Z,8.83
2018-06-14T11:43:05.499Z,8.63
2018-06-14T11:45:34.335Z,7.37
2018-06-14T11:48:03.117Z,8.33
2018-06-14T11:50:31.908Z,9.20
2018-06-14T11:53:00.722Z,8.97
2018-06-14T11:55:29.513Z,8.07
2018-06-14T11:57:58.307Z,8.20
2018-06-14T12:00:27.195Z,8.43
2018-06-14T12:02:55.995Z,9.10
2018-06-14T12:05:24.792Z,8.63
2018-06-14T12:07:53.629Z,8.73
2018-06-14T12:10:22.423Z,9.63
2018-06-14T12:12:51.294Z,8.20
2018-06-14T12:15:20.196Z,8.90
2018-06-14T12:17:49.009Z,9.03
2018-06-14T12:20:17.783Z,7.57
2018-06-14T12:22:46.553Z,7.63
2018-06-14T12:25:15.350Z,8.23
2018-06-14T12:27:44.114Z,8.93
2018-06-14T12:30:12.935Z,8.23
2018-06-14T12:32:41.752Z,7.90
2018-06-14T12:35:10.517Z,5.90
2018-06-14T12:37:39.394Z,6.50
2018-06-14T12:40:08.126Z,6.27
2018-06-14T12:42:36.880Z,5.90
2018-06-14T12:45:05.677Z,6.27
2018-06-14T12:47:34.452Z,6.00
2018-06-14T12:50:03.225Z,6.07
2018-06-14T12:52:32.053Z,6.70
2018-06-14T12:55:00.981Z,9.93
2018-06-14T12:57:29.761Z,9.90
2018-06-14T12:59:58.651Z,8.37
2018-06-14T13:02:27.445Z,9.80
2018-06-14T13:04:56.353Z,10.20
2018-06-14T13:07:25.092Z,9.53
2018-06-14T13:09:53.855Z,10.30
2018-06-14T13:12:22.655Z,10.43
2018-06-14T13:14:51.445Z,9.97
2018-06-14T13:17:20.361Z,9.17
2018-06-14T13:19:49.176Z,9.17
2018-06-14T13:22:17.948Z,8.60
2018-06-14T13:24:46.776Z,9.20
2018-06-14T13:27:15.535Z,9.17
2018-06-14T13:29:44.380Z,9.57
2018-06-14T13:32:13.193Z,9.30
2018-06-14T13:34:41.988Z,10.00
2018-06-14T13:37:10.859Z,9.33
2018-06-14T13:39:39.743Z,9.27
2018-06-14T13:42:08.514Z,8.37
2018-06-14T13:44:37.410Z,8.63
2018-06-14T13:47:06.191Z,7.50
2018-06-14T13:49:34.969Z,8.30
2018-06-14T13:52:03.829Z,7.80
2018-06-14T13:54:32.609Z,8.23
2018-06-14T13:57:01.476Z,7.80
2018-06-14T13:59:30.275Z,8.53
2018-06-14T14:01:59.078Z,8.10
2018-06-14T14:04:27.868Z,8.43
2018-06-14T14:07:01.816Z,9.03
2018-06-14T14:09:30.590Z,8.70
2018-06-14T14:11:59.468Z,8.87
2018-06-14T14:14:28.432Z,8.20
2018-06-14T14:16:57.231Z,8.03
2018-06-14T14:19:26.002Z,8.30
2018-06-14T14:21:54.864Z,8.67
2018-06-14T14:24:23.718Z,9.10
2018-06-14T14:26:52.538Z,8.13
2018-06-14T14:29:21.336Z,7.70
2018-06-14T14:31:50.133Z,6.83
2018-06-14T14:34:18.965Z,6.60
2018-06-14T14:36:47.838Z,7.07
2018-06-14T14:39:16.586Z,6.27
2018-06-14T14:41:45.381Z,6.40
2018-06-14T14:44:14.343Z,6.50
2018-06-14T14:46:43.121Z,6.63
2018-06-14T14:49:11.893Z,7.47
2018-06-14T14:51:40.655Z,7.90
2018-06-14T14:54:09.490Z,7.50
2018-06-14T14:56:38.252Z,9.00
2018-06-14T14:59:07.006Z,8.93
2018-06-14T15:01:35.869Z,8.97
2018-06-14T15:04:04.661Z,8.40
2018-06-14T15:06:33.588Z,9.83
2018-06-14T15:09:02.415Z,9.57
2018-06-14T15:11:31.217Z,7.90
2018-06-14T15:13:59.989Z,8.53
2018-06-14T15:16:28.753Z,9.67
2018-06-14T15:18:57.553Z,7.50
2018-06-14T15:21:26.363Z,8.53
2018-06-14T15:23:55.087Z,8.03
2018-06-14T15:26:24.043Z,7.80
2018-06-14T15:28:52.848Z,8.60
2018-06-14T15:31:21.604Z,8.73
2018-06-14T15:33:50.396Z,8.30
2018-06-14T15:36:19.184Z,8.17
2018-06-14T15:38:47.963Z,7.57
2018-06-14T15:41:16.769Z,8.40
2018-06-14T15:43:45.542Z,8.50
2018-06-14T15:46:14.336Z,7.43
2018-06-14T15:48:43.084Z,8.03
2018-06-14T15:51:11.983Z,7.67
2018-06-14T15:53:40.761Z,7.47
2018-06-14T15:56:25.632Z,7.83
2018-06-14T15:58:54.461Z,6.70
2018-06-14T16:01:23.239Z,7.17
2018-06-14T16:03:52.211Z,7.50
2018-06-14T16:06:21.011Z,7.37
2018-06-14T16:08:49.795Z,7.50
2018-06-14T16:11:18.683Z,7.40
2018-06-14T16:13:47.465Z,7.13
2018-06-14T16:16:16.281Z,7.00
2018-06-14T16:18:45.178Z,8.17
2018-06-14T16:21:14.091Z,8.10
2018-06-14T16:23:42.844Z,7.63
2018-06-14T16:26:11.619Z,7.80
2018-06-14T16:28:40.506Z,7.57
2018-06-14T16:31:09.369Z,7.20
2018-06-14T16:33:38.180Z,6.90
2018-06-14T16:36:07.027Z,7.90
2018-06-14T16:38:35.934Z,7.70
2018-06-14T16:41:04.864Z,6.87
2018-06-14T16:43:33.726Z,8.27
2018-06-14T16:46:02.741Z,8.17
2018-06-14T16:48:31.408Z,7.20
2018-06-14T16:51:00.248Z,8.00
2018-06-14T16:53:29.150Z,7.70
2018-06-14T16:55:58.161Z,7.73
2018-06-14T16:58:27.141Z,8.17
2018-06-14T17:00:56.029Z,7.83
2018-06-14T17:03:24.833Z,7.63
2018-06-14T17:05:53.677Z,6.80
2018-06-14T17:08:22.497Z,7.27
2018-06-14T17:10:51.347Z,7.20
2018-06-14T17:13:20.170Z,7.43
2018-06-14T17:15:49.091Z,7.47
2018-06-14T17:18:18.010Z,7.47
2018-06-14T17:20:46.816Z,7.63
2018-06-14T17:23:15.736Z,8.00
2018-06-14T17:25:44.545Z,7.30
2018-06-14T17:28:13.389Z,7.97
2018-06-14T17:30:42.232Z,7.60
2018-06-14T17:33:11.101Z,8.10
2018-06-14T17:35:39.966Z,7.83
2018-06-14T17:38:08.788Z,8.10
2018-06-14T17:40:37.758Z,8.33
2018-06-14T17:43:06.622Z,7.83
2018-06-14T17:45:35.463Z,8.30
2018-06-14T17:48:04.302Z,8.17
2018-06-14T17:50:33.086Z,8.17
2018-06-14T17:53:01.883Z,8.47
2018-06-14T17:55:30.757Z,8.10
2018-06-14T17:57:59.588Z,8.03
2018-06-14T18:00:28.431Z,8.47
2018-06-14T18:02:57.400Z,8.20
2018-06-14T18:05:26.333Z,8.50
2018-06-14T18:07:55.184Z,8.03
2018-06-14T18:10:23.974Z,9.03
2018-06-14T18:12:52.780Z,8.70
2018-06-14T18:15:21.605Z,9.20
2018-06-14T18:17:50.511Z,8.13
2018-06-14T18:20:20.020Z,8.87
2018-06-14T18:22:48.913Z,13.90
2018-06-14T18:25:17.762Z,10.47
2018-06-14T18:27:46.546Z,9.03
2018-06-14T18:30:15.422Z,24.17
2018-06-14T18:32:44.308Z,10.67
2018-06-14T18:35:13.156Z,10.43
2018-06-14T18:37:42.105Z,9.00
2018-06-14T18:40:11.127Z,8.90
2018-06-14T18:42:40.027Z,9.70
2018-06-14T18:45:08.877Z,9.07
2018-06-14T18:47:37.895Z,9.53
2018-06-14T18:50:06.762Z,8.50
2018-06-14T18:52:35.583Z,8.60
2018-06-14T18:55:04.474Z,9.10
2018-06-14T18:57:33.340Z,9.40
2018-06-14T19:00:02.210Z,9.87
2018-06-14T19:02:31.073Z,9.30
2018-06-14T19:04:59.944Z,8.93
2018-06-14T19:07:29.044Z,9.47
2018-06-14T19:09:57.928Z,8.77
2018-06-14T19:12:26.738Z,9.40
2018-06-14T19:14:55.659Z,10.10
2018-06-14T19:17:25.438Z,8.90
2018-06-14T19:19:54.504Z,9.60
2018-06-14T19:22:23.290Z,9.47
2018-06-14T19:24:52.214Z,9.90
2018-06-14T19:27:21.027Z,10.00
2018-06-14T19:29:49.864Z,10.47
2018-06-14T19:32:18.851Z,10.13
2018-06-14T19:34:47.701Z,9.40
2018-06-14T19:37:16.550Z,9.73
2018-06-14T19:39:45.344Z,10.27
2018-06-14T19:42:14.226Z,10.20
2018-06-14T19:44:43.143Z,9.23
2018-06-14T19:47:12.006Z,9.83
2018-06-14T19:49:41.191Z,10.10
2018-06-14T19:52:10.013Z,9.80
2018-06-14T19:54:38.917Z,10.90
2018-06-14T19:57:07.762Z,10.63
2018-06-14T19:59:36.634Z,9.67
2018-06-14T20:02:05.484Z,9.77
2018-06-14T20:04:34.321Z,10.00
2018-06-14T20:07:03.210Z,9.77
2018-06-14T20:09:32.010Z,10.07
2018-06-14T20:12:00.860Z,9.67
2018-06-14T20:14:29.730Z,9.80
2018-06-14T20:16:58.708Z,10.00
2018-06-14T20:19:27.516Z,10.83
2018-06-14T20:21:56.339Z,10.97
2018-06-14T20:24:25.119Z,10.90
2018-06-14T20:26:53.936Z,11.30
2018-06-14T20:29:22.808Z,9.93
2018-06-14T20:31:51.570Z,11.00
2018-06-14T20:34:20.343Z,11.00
2018-06-14T20:36:49.208Z,10.90
2018-06-14T20:39:18.012Z,11.10
2018-06-14T20:41:46.923Z,11.80
2018-06-14T20:44:15.656Z,11.00
2018-06-14T20:46:44.453Z,10.33
2018-06-14T20:49:13.257Z,10.20
2018-06-14T20:51:42.129Z,10.60
2018-06-14T20:54:10.909Z,10.57
2018-06-14T20:56:39.683Z,9.83
2018-06-14T20:59:08.464Z,9.87
2018-06-14T21:01:37.317Z,8.67
2018-06-14T21:04:06.170Z,8.40
2018-06-14T21:06:34.954Z,8.43
2018-06-14T21:09:04.722Z,7.57
2018-06-14T21:11:33.513Z,7.63
2018-06-14T21:14:02.284Z,6.93
2018-06-14T21:16:31.099Z,7.23
2018-06-14T21:19:00.013Z,6.93
2018-06-14T21:21:28.795Z,8.10
2018-06-14T21:23:58.767Z,7.53
2018-06-14T21:26:27.739Z,8.50
2018-06-14T21:28:56.547Z,7.83
2018-06-14T21:31:25.339Z,8.40
2018-06-14T21:33:54.122Z,8.60
2018-06-14T21:36:23.604Z,9.03
2018-06-14T21:38:52.383Z,7.70
2018-06-14T21:41:21.189Z,7.40
2018-06-14T21:43:49.945Z,8.37
2018-06-14T21:46:18.830Z,7.37
2018-06-14T21:48:47.695Z,7.60
2018-06-14T21:51:16.544Z,7.70
2018-06-14T21:53:45.304Z,7.80
2018-06-14T21:56:14.044Z,7.90
2018-06-14T21:58:42.838Z,8.47
2018-06-14T22:01:12.424Z,7.80
2018-06-14T22:03:46.337Z,8.17
2018-06-14T22:06:15.158Z,9.00
2018-06-14T22:08:43.996Z,9.03
2018-06-14T22:11:12.848Z,9.37
2018-06-14T22:13:41.701Z,8.47
2018-06-14T22:16:10.454Z,9.40
2018-06-14T22:18:39.242Z,9.17
2018-06-14T22:21:08.015Z,9.83
2018-06-14T22:23:36.784Z,9.33
2018-06-14T22:26:05.600Z,10.07
2018-06-14T22:28:34.398Z,9.20
2018-06-14T22:31:03.283Z,9.23
2018-06-14T22:33:43.061Z,9.57
2018-06-14T22:36:11.867Z,9.23
2018-06-14T22:38:40.639Z,9.60
2018-06-14T22:41:09.411Z,9.27
2018-06-14T22:43:38.195Z,10.00
2018-06-14T22:46:07.115Z,9.40
2018-06-14T22:48:35.901Z,9.63
2018-06-14T22:51:19.977Z,10.03
2018-06-14T22:53:48.818Z,10.13
2018-06-14T22:56:17.724Z,10.70
2018-06-14T22:58:46.604Z,11.23
2018-06-14T23:01:48.664Z,10.27
2018-06-14T23:04:26.590Z,11.27
2018-06-14T23:06:55.572Z,10.33
2018-06-14T23:10:37.152Z,11.07
2018-06-14T23:13:06.757Z,10.30
2018-06-14T23:15:35.581Z,10.70
2018-06-14T23:18:04.696Z,10.63
2018-06-14T23:20:34.290Z,11.80
2018-06-14T23:23:03.676Z,10.57
2018-06-14T23:25:32.951Z,10.93
2018-06-14T23:28:01.745Z,11.73
2018-06-14T23:30:30.535Z,11.90
2018-06-14T23:32:59.396Z,11.13
2018-06-14T23:35:28.297Z,11.33
2018-06-14T23:37:57.100Z,12.27
2018-06-14T23:40:25.879Z,11.90
2018-06-14T23:42:54.653Z,11.67
2018-06-14T23:45:23.413Z,12.00
2018-06-14T23:47:52.173Z,12.23
2018-06-14T23:50:20.997Z,10.67
2018-06-14T23:52:49.745Z,10.97
2018-06-14T23:55:18.530Z,11.27
2018-06-14T23:57:47.390Z,11.50
